createdAt,value
2022-12-26T00:01:35.800Z,49.87
2022-12-26T00:04:48.870Z,49.81
2022-12-26T00:07:55.401Z,49.80
2022-12-26T00:10:58.694Z,49.70
2022-12-26T00:14:03.724Z,49.69
2022-12-26T00:17:07.953Z,49.87
2022-12-26T00:20:11.673Z,49.86
2022-12-26T00:23:14.540Z,49.90
2022-12-26T00:26:19.865Z,49.77
2022-12-26T00:29:23.528Z,49.85
2022-12-26T00:32:27.732Z,49.94
2022-12-26T00:35:30.520Z,49.86
2022-12-26T00:38:33.388Z,49.71
2022-12-26T00:41:36.286Z,49.83
2022-12-26T00:44:39.363Z,49.88
2022-12-26T00:47:43.566Z,49.77
2022-12-26T00:50:46.602Z,49.81
2022-12-26T00:53:49.557Z,49.82
2022-12-26T00:56:52.396Z,49.84
2022-12-26T00:59:55.243Z,49.68
2022-12-26T01:02:59.668Z,49.79
2022-12-26T01:06:04.056Z,49.88
2022-12-26T01:09:06.928Z,49.98
2022-12-26T01:12:09.753Z,49.74
2022-12-26T01:15:12.736Z,49.82
2022-12-26T01:18:17.005Z,49.70
2022-12-26T01:21:19.790Z,49.72
2022-12-26T01:24:23.053Z,49.85
2022-12-26T01:27:27.231Z,49.81
2022-12-26T01:30:30.262Z,49.86
2022-12-26T01:33:34.483Z,49.92
2022-12-26T01:36:37.276Z,49.70
2022-12-26T01:39:40.098Z,49.92
2022-12-26T01:42:43.118Z,49.91
2022-12-26T01:45:51.641Z,49.94
2022-12-26T01:48:57.235Z,49.86
2022-12-26T01:52:03.790Z,49.86
2022-12-26T01:55:11.860Z,49.86
2022-12-26T01:58:21.642Z,50.01
2022-12-26T02:01:28.650Z,49.82
2022-12-26T02:04:54.641Z,49.90
2022-12-26T02:07:57.863Z,49.81
2022-12-26T02:11:08.799Z,49.84
2022-12-26T02:14:13.098Z,49.91
2022-12-26T02:17:16.044Z,49.92
2022-12-26T02:20:23.813Z,49.91
2022-12-26T02:24:01.743Z,49.90
2022-12-26T02:27:18.162Z,49.71
2022-12-26T02:30:37.631Z,49.85
2022-12-26T02:33:56.429Z,49.95
2022-12-26T02:37:18.449Z,49.94
2022-12-26T02:40:38.606Z,49.72
2022-12-26T02:43:48.920Z,49.80
2022-12-26T02:47:05.153Z,49.83
2022-12-26T02:50:39.195Z,49.94
2022-12-26T02:54:06.495Z,49.91
2022-12-26T02:57:33.289Z,49.91
2022-12-26T03:01:02.879Z,49.95
2022-12-26T03:04:30.733Z,49.89
2022-12-26T03:07:55.792Z,49.98
2022-12-26T03:11:17.500Z,49.90
2022-12-26T03:14:24.955Z,50.05
2022-12-26T03:17:31.195Z,49.86
2022-12-26T03:20:37.855Z,50.04
2022-12-26T03:23:44.921Z,49.92
2022-12-26T03:26:50.505Z,49.80
2022-12-26T03:30:10.603Z,50.04
2022-12-26T03:33:27.362Z,49.78
2022-12-26T03:36:40.389Z,50.00
2022-12-26T03:40:12.172Z,49.92
2022-12-26T03:43:47.213Z,49.88
2022-12-26T03:47:20.197Z,49.73
2022-12-26T03:50:51.202Z,49.89
2022-12-26T03:54:19.135Z,49.85
2022-12-26T03:57:44.226Z,49.88
2022-12-26T04:01:09.031Z,49.77
2022-12-26T04:04:33.027Z,49.92
2022-12-26T04:07:59.825Z,49.90
2022-12-26T04:11:23.411Z,49.76
2022-12-26T04:14:57.107Z,49.70
2022-12-26T04:18:22.804Z,49.87
2022-12-26T04:21:49.443Z,49.89
2022-12-26T04:25:15.575Z,49.81
2022-12-26T04:28:38.431Z,49.87
2022-12-26T04:32:05.026Z,49.85
2022-12-26T04:35:33.300Z,49.92
2022-12-26T04:38:58.564Z,49.98
2022-12-26T04:42:19.204Z,49.89
2022-12-26T04:45:24.685Z,49.96
2022-12-26T04:48:44.865Z,49.88
2022-12-26T04:51:47.680Z,49.84
2022-12-26T04:54:51.773Z,49.96
2022-12-26T04:57:55.009Z,50.00
2022-12-26T05:01:20.069Z,49.90
2022-12-26T05:04:40.497Z,49.99
2022-12-26T05:08:01.212Z,49.99
2022-12-26T05:11:04.092Z,49.93
2022-12-26T05:14:06.886Z,49.93
2022-12-26T05:17:31.083Z,50.09
2022-12-26T05:20:51.215Z,50.02
2022-12-26T05:24:11.381Z,49.93
2022-12-26T05:27:34.707Z,49.86
2022-12-26T05:30:38.303Z,50.12
2022-12-26T05:34:00.561Z,50.03
2022-12-26T05:37:03.636Z,50.09
2022-12-26T05:40:07.674Z,49.98
2022-12-26T05:43:10.535Z,49.98
2022-12-26T05:46:13.469Z,50.03
2022-12-26T05:49:17.660Z,49.94
2022-12-26T05:52:20.508Z,50.10
2022-12-26T05:55:24.412Z,50.06
2022-12-26T05:58:27.308Z,49.99
2022-12-26T06:01:31.299Z,50.02
2022-12-26T06:04:36.547Z,50.01
2022-12-26T06:07:39.443Z,49.96
2022-12-26T06:10:42.331Z,49.99
2022-12-26T06:13:45.477Z,49.79
2022-12-26T06:16:48.401Z,50.15
2022-12-26T06:19:52.613Z,50.05
2022-12-26T06:22:55.447Z,50.00
2022-12-26T06:25:58.968Z,50.04
2022-12-26T06:29:01.930Z,50.01
2022-12-26T06:32:05.268Z,49.99
2022-12-26T06:35:10.022Z,49.96
2022-12-26T06:38:13.354Z,50.04
2022-12-26T06:41:19.080Z,50.08
2022-12-26T06:44:22.089Z,50.03
2022-12-26T06:47:25.013Z,50.04
2022-12-26T06:50:29.719Z,50.07
2022-12-26T06:53:32.619Z,50.13
2022-12-26T06:56:36.157Z,49.98
2022-12-26T06:59:38.975Z,50.09
2022-12-26T07:02:41.857Z,50.01
2022-12-26T07:05:46.202Z,50.02
2022-12-26T07:08:49.415Z,49.93
2022-12-26T07:11:52.219Z,50.08
2022-12-26T07:14:59.639Z,49.94
2022-12-26T07:18:04.324Z,49.99
2022-12-26T07:21:09.933Z,50.21
2022-12-26T07:24:16.667Z,50.04
2022-12-26T07:27:19.486Z,50.04
2022-12-26T07:30:22.603Z,50.16
2022-12-26T07:33:25.495Z,50.12
2022-12-26T07:36:29.894Z,49.96
2022-12-26T07:39:32.708Z,49.90
2022-12-26T07:42:35.589Z,50.02
2022-12-26T07:45:45.047Z,50.08
2022-12-26T07:48:48.649Z,50.13
2022-12-26T07:51:53.318Z,50.05
2022-12-26T07:54:56.143Z,50.13
2022-12-26T07:57:58.971Z,50.06
2022-12-26T08:01:02.499Z,50.12
2022-12-26T08:04:05.653Z,50.21
2022-12-26T08:07:10.844Z,50.10
2022-12-26T08:10:14.417Z,50.09
2022-12-26T08:13:17.271Z,50.08
2022-12-26T08:16:21.147Z,50.00
2022-12-26T08:19:24.371Z,50.02
2022-12-26T08:22:28.557Z,50.18
2022-12-26T08:25:31.375Z,50.27
2022-12-26T08:28:34.402Z,50.13
2022-12-26T08:31:38.427Z,50.11
2022-12-26T08:34:41.285Z,50.12
2022-12-26T08:37:45.510Z,50.27
2022-12-26T08:40:56.099Z,50.08
2022-12-26T08:47:26.313Z,50.11
2022-12-26T08:50:29.367Z,50.04
2022-12-26T08:53:35.826Z,50.11
2022-12-26T08:56:38.865Z,50.09
2022-12-26T08:59:41.779Z,50.08
2022-12-26T09:02:44.782Z,50.24
2022-12-26T09:05:48.093Z,50.06
2022-12-26T09:08:52.840Z,50.12
2022-12-26T09:11:55.734Z,50.06
2022-12-26T09:14:58.519Z,50.03
2022-12-26T09:18:01.378Z,50.15
2022-12-26T09:21:06.006Z,50.09
2022-12-26T09:24:13.512Z,50.09
2022-12-26T09:27:16.480Z,50.14
2022-12-26T09:30:19.583Z,50.05
2022-12-26T09:33:22.384Z,50.14
2022-12-26T09:36:27.540Z,50.30
2022-12-26T09:39:31.769Z,50.27
2022-12-26T09:42:40.638Z,49.98
2022-12-26T09:45:54.272Z,50.11
2022-12-26T09:49:02.221Z,50.15
2022-12-26T09:52:12.841Z,50.27
2022-12-26T09:55:39.715Z,50.25
2022-12-26T09:58:47.272Z,50.15
2022-12-26T10:01:50.280Z,50.33
2022-12-26T10:04:54.523Z,50.14
2022-12-26T10:08:02.292Z,50.16
2022-12-26T10:11:11.324Z,50.03
2022-12-26T10:14:22.601Z,50.22
2022-12-26T10:17:33.589Z,50.22
2022-12-26T10:20:52.368Z,50.21
2022-12-26T10:23:58.661Z,50.17
2022-12-26T10:27:09.962Z,50.21
2022-12-26T10:30:18.761Z,50.19
2022-12-26T10:33:31.484Z,50.23
2022-12-26T10:36:40.795Z,50.37
2022-12-26T10:39:48.342Z,50.13
2022-12-26T10:42:54.909Z,50.23
2022-12-26T10:46:17.661Z,50.24
2022-12-26T10:49:24.653Z,50.16
2022-12-26T10:52:32.370Z,50.13
2022-12-26T10:55:36.590Z,50.23
2022-12-26T10:58:42.166Z,50.32
2022-12-26T11:01:48.356Z,50.19
2022-12-26T11:05:48.384Z,50.14
2022-12-26T11:08:40.678Z,50.25
2022-12-26T11:11:52.995Z,50.35
2022-12-26T11:15:02.605Z,50.08
2022-12-26T11:18:17.161Z,50.17
2022-12-26T11:21:23.908Z,50.03
2022-12-26T11:24:26.764Z,50.20
2022-12-26T11:27:29.593Z,50.25
2022-12-26T11:30:38.115Z,50.18
2022-12-26T11:33:44.401Z,50.17
2022-12-26T11:36:49.778Z,50.20
2022-12-26T11:39:53.424Z,50.24
2022-12-26T11:42:58.459Z,50.23
2022-12-26T11:46:02.943Z,50.21
2022-12-26T11:49:08.463Z,50.20
2022-12-26T11:52:34.564Z,50.22
2022-12-26T11:55:39.343Z,50.08
2022-12-26T11:58:42.150Z,50.17
2022-12-26T12:01:47.262Z,50.34
2022-12-26T12:04:52.025Z,50.19
2022-12-26T12:08:19.889Z,50.26
2022-12-26T12:11:30.471Z,50.19
2022-12-26T12:14:49.482Z,50.10
2022-12-26T12:18:06.617Z,50.30
2022-12-26T12:21:19.076Z,50.26
2022-12-26T12:24:39.515Z,50.12
2022-12-26T12:27:48.984Z,50.10
2022-12-26T12:31:03.148Z,50.24
2022-12-26T12:34:18.581Z,50.22
2022-12-26T12:37:33.968Z,50.18
2022-12-26T12:40:45.973Z,50.12
2022-12-26T12:43:54.738Z,50.02
2022-12-26T12:47:10.103Z,50.41
2022-12-26T12:50:24.265Z,50.11
2022-12-26T12:53:44.128Z,50.35
2022-12-26T12:56:55.268Z,50.29
2022-12-26T13:00:11.909Z,50.08
2022-12-26T13:03:26.311Z,50.28
2022-12-26T13:06:36.376Z,50.21
2022-12-26T13:09:45.628Z,50.23
2022-12-26T13:12:50.039Z,50.16
2022-12-26T13:15:57.793Z,50.28
2022-12-26T13:19:04.113Z,50.20
2022-12-26T13:22:14.948Z,50.16
2022-12-26T13:25:19.253Z,50.18
2022-12-26T13:28:26.394Z,50.35
2022-12-26T13:31:34.950Z,50.15
2022-12-26T13:34:38.465Z,50.35
2022-12-26T13:37:57.680Z,50.17
2022-12-26T13:41:24.319Z,50.30
2022-12-26T13:44:27.393Z,50.28
2022-12-26T13:47:35.900Z,50.06
2022-12-26T13:50:55.311Z,50.38
2022-12-26T13:54:10.136Z,50.22
2022-12-26T13:57:35.954Z,50.24
2022-12-26T14:00:46.245Z,50.17
2022-12-26T14:04:09.625Z,50.24
2022-12-26T14:07:25.849Z,50.24
2022-12-26T14:10:40.947Z,50.26
2022-12-26T14:14:06.528Z,50.40
2022-12-26T14:17:20.408Z,50.19
2022-12-26T14:20:39.520Z,50.34
2022-12-26T14:23:48.318Z,50.28
2022-12-26T14:27:01.831Z,50.08
2022-12-26T14:30:21.397Z,50.25
2022-12-26T14:33:31.375Z,50.29
2022-12-26T14:36:41.956Z,50.28
2022-12-26T14:39:58.714Z,50.42
2022-12-26T14:43:30.063Z,50.33
2022-12-26T14:46:57.608Z,50.39
2022-12-26T14:50:40.310Z,50.24
2022-12-26T14:53:44.125Z,50.19
2022-12-26T14:56:47.484Z,50.20
2022-12-26T15:00:32.552Z,50.26
2022-12-26T15:03:52.600Z,50.19
2022-12-26T15:07:22.251Z,50.20
2022-12-26T15:11:00.622Z,50.14
2022-12-26T15:14:35.564Z,50.15
2022-12-26T15:17:48.192Z,50.25
2022-12-26T15:21:18.577Z,50.26
2022-12-26T15:25:18.005Z,50.26
2022-12-26T15:28:44.587Z,50.34
2022-12-26T15:31:59.883Z,50.36
2022-12-26T15:35:19.895Z,50.30
2022-12-26T15:38:33.858Z,50.23
2022-12-26T15:41:44.740Z,50.25
2022-12-26T15:44:56.308Z,50.25
2022-12-26T15:48:05.995Z,50.38
2022-12-26T15:51:14.384Z,50.24
2022-12-26T15:54:41.012Z,50.27
2022-12-26T15:57:51.704Z,50.23
2022-12-26T16:00:55.867Z,50.25
2022-12-26T16:04:01.555Z,50.36
2022-12-26T16:07:10.082Z,50.27
2022-12-26T16:10:30.637Z,50.27
2022-12-26T16:13:34.501Z,50.02
2022-12-26T16:16:39.167Z,50.26
2022-12-26T16:19:43.794Z,50.18
2022-12-26T16:22:47.271Z,50.39
2022-12-26T16:25:53.704Z,50.26
2022-12-26T16:28:58.878Z,50.39
2022-12-26T16:32:06.281Z,50.32
2022-12-26T16:35:18.604Z,50.35
2022-12-26T16:38:27.515Z,50.26
2022-12-26T16:41:33.337Z,50.19
2022-12-26T16:44:38.473Z,50.22
2022-12-26T16:47:41.687Z,50.12
2022-12-26T16:50:48.703Z,50.31
2022-12-26T16:53:51.516Z,50.27
2022-12-26T16:57:03.234Z,50.34
2022-12-26T17:00:06.919Z,50.11
2022-12-26T17:03:18.675Z,50.32
2022-12-26T17:06:27.293Z,50.34
2022-12-26T17:09:33.142Z,50.26
2022-12-26T17:12:39.977Z,50.25
2022-12-26T17:15:52.991Z,50.26
2022-12-26T17:18:56.807Z,50.45
2022-12-26T17:22:23.276Z,50.19
2022-12-26T17:25:28.229Z,50.26
2022-12-26T17:28:32.706Z,50.35
2022-12-26T17:31:40.102Z,50.21
2022-12-26T17:34:43.460Z,50.15
2022-12-26T17:37:49.370Z,50.21
2022-12-26T17:40:55.219Z,50.29
2022-12-26T17:44:00.132Z,50.34
2022-12-26T17:47:10.987Z,50.20
2022-12-26T17:50:14.756Z,50.33
2022-12-26T17:53:27.636Z,50.29
2022-12-26T17:56:30.561Z,50.11
2022-12-26T17:59:35.544Z,50.37
2022-12-26T18:02:38.516Z,50.34
2022-12-26T18:05:41.720Z,50.17
2022-12-26T18:08:44.587Z,50.27
2022-12-26T18:11:47.448Z,50.20
2022-12-26T18:14:54.665Z,50.30
2022-12-26T18:18:02.283Z,50.33
2022-12-26T18:21:08.551Z,50.44
2022-12-26T18:24:11.882Z,50.34
2022-12-26T18:27:19.225Z,50.29
2022-12-26T18:30:26.341Z,50.36
2022-12-26T18:33:29.180Z,50.17
2022-12-26T18:36:35.425Z,50.26
2022-12-26T18:39:38.367Z,50.22
2022-12-26T18:42:41.199Z,50.42
2022-12-26T18:45:45.700Z,50.30
2022-12-26T18:48:51.001Z,50.28
2022-12-26T18:51:53.813Z,50.30
2022-12-26T18:54:56.651Z,50.21
2022-12-26T18:57:59.598Z,50.22
2022-12-26T19:01:06.024Z,50.28
2022-12-26T19:04:15.509Z,50.33
2022-12-26T19:07:22.306Z,50.20
2022-12-26T19:10:28.473Z,50.39
2022-12-26T19:13:31.246Z,50.36
2022-12-26T19:16:35.663Z,50.28
2022-12-26T19:19:38.588Z,50.35
2022-12-26T19:22:41.383Z,50.38
2022-12-26T19:25:44.367Z,50.32
2022-12-26T19:28:51.973Z,50.35
2022-12-26T19:31:56.577Z,50.20
2022-12-26T19:34:59.524Z,50.16
2022-12-26T19:38:02.362Z,50.23
2022-12-26T19:41:06.485Z,50.36
2022-12-26T19:44:10.837Z,50.27
2022-12-26T19:47:15.078Z,50.38
2022-12-26T19:50:18.003Z,50.26
2022-12-26T19:53:20.856Z,50.39
2022-12-26T19:56:25.898Z,50.27
2022-12-26T19:59:28.802Z,50.19
2022-12-26T20:02:33.078Z,50.32
2022-12-26T20:05:37.962Z,50.16
2022-12-26T20:08:41.633Z,50.20
2022-12-26T20:11:47.484Z,50.33
2022-12-26T20:14:50.755Z,50.23
2022-12-26T20:17:54.999Z,50.30
2022-12-26T20:20:58.127Z,50.32
2022-12-26T20:24:02.254Z,50.19
2022-12-26T20:27:05.478Z,50.27
2022-12-26T20:30:10.466Z,50.22
2022-12-26T20:33:14.652Z,50.25
2022-12-26T20:36:19.892Z,50.34
2022-12-26T20:39:23.386Z,50.15
2022-12-26T20:42:26.250Z,50.22
2022-12-26T20:45:29.088Z,50.11
2022-12-26T20:48:33.236Z,50.01
2022-12-26T20:51:38.520Z,50.17
2022-12-26T20:54:41.423Z,50.00
2022-12-26T20:57:44.277Z,50.09
2022-12-26T21:00:47.423Z,50.16
2022-12-26T21:03:54.797Z,50.28
2022-12-26T21:06:57.626Z,50.32
2022-12-26T21:10:00.727Z,50.21
2022-12-26T21:13:03.648Z,50.05
2022-12-26T21:16:10.003Z,50.20
2022-12-26T21:19:15.883Z,50.33
2022-12-26T21:22:18.953Z,50.20
2022-12-26T21:25:22.309Z,50.15
2022-12-26T21:28:25.116Z,50.15
2022-12-26T21:31:29.151Z,50.33
2022-12-26T21:34:34.836Z,50.16
2022-12-26T21:37:51.503Z,50.11
2022-12-26T21:40:54.349Z,50.18
2022-12-26T21:43:57.168Z,50.13
2022-12-26T21:47:00.424Z,50.17
2022-12-26T21:50:05.215Z,50.22
2022-12-26T21:53:08.329Z,50.34
2022-12-26T21:56:12.390Z,50.21
2022-12-26T21:59:32.924Z,50.25
2022-12-26T22:02:55.837Z,50.20
2022-12-26T22:06:00.132Z,50.10
2022-12-26T22:09:02.965Z,50.10
2022-12-26T22:12:23.460Z,50.18
2022-12-26T22:15:44.651Z,50.35
2022-12-26T22:18:48.499Z,50.18
2022-12-26T22:21:52.965Z,50.11
2022-12-26T22:24:55.772Z,50.19
2022-12-26T22:28:00.255Z,50.28
2022-12-26T22:31:03.274Z,50.31
2022-12-26T22:34:07.975Z,50.19
2022-12-26T22:37:12.217Z,50.17
2022-12-26T22:40:15.131Z,50.20
2022-12-26T22:43:18.174Z,50.15
2022-12-26T22:46:21.049Z,50.16
2022-12-26T22:49:23.878Z,50.10
2022-12-26T22:52:28.021Z,50.13
2022-12-26T22:55:30.898Z,50.29
2022-12-26T22:58:34.824Z,50.34
2022-12-26T23:01:37.762Z,50.02
2022-12-26T23:04:41.107Z,50.31
2022-12-26T23:07:46.066Z,50.08
2022-12-26T23:10:50.375Z,50.22
2022-12-26T23:13:54.048Z,50.22
2022-12-26T23:16:59.499Z,50.21
2022-12-26T23:20:20.392Z,50.18
2022-12-26T23:23:25.661Z,50.20
2022-12-26T23:26:28.590Z,50.21
2022-12-26T23:29:48.840Z,50.19
2022-12-26T23:32:53.849Z,50.10
2022-12-26T23:35:56.800Z,50.16
2022-12-26T23:39:01.109Z,50.14
2022-12-26T23:42:03.946Z,50.31
2022-12-26T23:45:08.253Z,50.16
2022-12-26T23:48:11.235Z,50.11
2022-12-26T23:51:14.090Z,50.17
2022-12-26T23:54:18.328Z,49.96
2022-12-26T23:57:21.155Z,50.10
